Time;durP1;ratioP1;P1;durP2;ratioP2;P2;SDS_P1;SDS_P2;PMS_P1;PMS_P2;Temp;Humidity;BMP_temperature;BMP_pressure;BME280_temperature;BME280_humidity;BME280_pressure;Samples;Min_cycle;Max_cycle;Signal;HPM_P1;HPM_P2
2021/09/30 00:00:27;;;;;;;3.25;0.70;;;;;;;3.87;86.44;91718.00;5040627;28;20028;-88
2021/09/30 00:02:52;;;;;;;2.47;0.50;;;;;;;4.17;85.73;91715.22;5056874;28;20023;-88
2021/09/30 00:05:18;;;;;;;3.95;0.52;;;;;;;4.09;85.83;91700.31;5040239;28;20124;-88
2021/09/30 00:07:43;;;;;;;5.35;2.20;;;;;;;3.91;85.57;91706.09;5036276;28;20017;-88
2021/09/30 00:10:10;;;;;;;4.00;0.47;;;;;;;3.64;86.23;91709.88;5020863;28;20078;-88
2021/09/30 00:12:41;;;;;;;2.85;0.75;;;;;;;3.75;86.04;91705.44;5020392;28;20016;-88
2021/09/30 00:15:10;;;;;;;1.58;0.35;;;;;;;3.71;85.90;91700.03;5032644;28;20020;-89
2021/09/30 00:34:01;;;;;;;2.63;0.60;;;;;;;3.66;84.76;91718.09;5033101;28;20028;-88
2021/09/30 00:47:11;;;;;;;2.50;0.60;;;;;;;3.24;86.78;91726.28;5025571;28;20104;-89
2021/09/30 00:49:47;;;;;;;4.47;0.82;;;;;;;3.37;86.42;91724.94;5032532;28;20075;-91
2021/09/30 02:20:29;;;;;;;0.60;0.43;;;;;;;2.36;86.29;91738.50;5036255;28;20044;-88
2021/09/30 02:40:10;;;;;;;1.27;0.53;;;;;;;2.11;86.53;91726.41;5057402;28;20043;-87
2021/09/30 03:00:56;;;;;;;1.65;0.70;;;;;;;1.62;87.76;91733.78;5037535;28;20566;-88
2021/09/30 03:03:21;;;;;;;2.63;0.40;;;;;;;1.74;87.71;91736.13;5043095;28;20029;-88
2021/09/30 03:05:52;;;;;;;1.95;0.50;;;;;;;1.73;87.38;91727.63;5034675;28;20025;-87
2021/09/30 03:08:18;;;;;;;1.80;0.60;;;;;;;1.68;87.37;91733.53;5004971;28;20021;-88
2021/09/30 03:10:45;;;;;;;21.48;1.08;;;;;;;1.61;89.12;91724.53;5034744;28;20025;-88
2021/09/30 03:15:54;;;;;;;32.92;1.27;;;;;;;1.67;90.24;91733.81;4992011;28;20058;-89
2021/09/30 03:23:44;;;;;;;15.85;0.80;;;;;;;1.58;90.72;91743.03;4957658;28;20098;-90
2021/09/30 03:26:09;;;;;;;1.63;0.50;;;;;;;1.56;90.69;91745.09;4961114;28;20026;-89
2021/09/30 03:28:35;;;;;;;0.93;0.40;;;;;;;1.56;89.72;91742.53;4945152;28;20034;-90
2021/09/30 03:31:00;;;;;;;7.80;0.90;;;;;;;1.49;89.09;91742.00;4947318;28;20480;-90
2021/09/30 03:33:26;;;;;;;1.05;0.43;;;;;;;1.51;88.25;91745.06;4952095;28;20039;-90
2021/09/30 03:35:52;;;;;;;2.65;0.77;;;;;;;1.42;87.47;91747.34;4980065;28;20022;-91
2021/09/30 03:38:18;;;;;;;9.95;0.70;;;;;;;1.39;87.32;91742.72;4966554;28;20030;-90
2021/09/30 03:40:44;;;;;;;4.18;0.73;;;;;;;1.38;88.15;91749.66;4983593;28;20030;-90
2021/09/30 03:43:09;;;;;;;2.38;0.50;;;;;;;1.37;87.44;91752.44;4999018;28;20022;-90
2021/09/30 03:45:35;;;;;;;3.20;0.52;;;;;;;1.15;88.80;91742.34;4999431;28;20030;-90
2021/09/30 03:48:01;;;;;;;9.48;0.82;;;;;;;1.30;88.61;91757.81;4999239;28;20080;-90
2021/09/30 03:50:30;;;;;;;1.63;0.80;;;;;;;1.07;89.88;91755.69;4998989;28;20026;-91
2021/09/30 03:55:33;;;;;;;1.08;0.50;;;;;;;1.09;89.11;91745.91;4992452;28;20026;-90
2021/09/30 04:00:43;;;;;;;1.50;0.53;;;;;;;1.14;88.67;91746.72;4949542;28;20029;-91
2021/09/30 04:03:08;;;;;;;2.40;0.60;;;;;;;1.16;88.93;91743.88;4960221;28;20022;-90
2021/09/30 04:05:34;;;;;;;13.98;0.70;;;;;;;1.24;89.53;91743.44;4962390;28;20034;-90
2021/09/30 04:07:59;;;;;;;11.55;0.88;;;;;;;1.18;90.15;91741.84;4963975;28;20114;-90
2021/09/30 04:10:25;;;;;;;14.98;0.82;;;;;;;1.12;90.77;91745.41;4980334;28;20522;-91
2021/09/30 04:12:50;;;;;;;7.93;0.70;;;;;;;1.17;90.27;91746.22;4983308;28;20025;-90
2021/09/30 04:15:16;;;;;;;14.88;0.95;;;;;;;1.17;90.20;91753.16;5001065;28;20029;-90
2021/09/30 04:17:41;;;;;;;23.10;1.25;;;;;;;1.06;90.74;91751.53;4997284;28;20022;-90
2021/09/30 04:20:07;;;;;;;24.75;0.90;;;;;;;1.02;91.03;91750.50;4960594;28;20031;-90
2021/09/30 04:22:32;;;;;;;21.55;0.90;;;;;;;0.89;91.67;91752.50;4977197;28;20496;-90
2021/09/30 04:24:58;;;;;;;13.10;0.80;;;;;;;0.94;92.08;91749.19;4976494;28;20027;-90
2021/09/30 04:27:23;;;;;;;30.25;0.93;;;;;;;1.07;90.95;91747.97;4944315;28;20085;-91
2021/09/30 04:29:49;;;;;;;23.13;0.90;;;;;;;0.87;91.69;91746.84;4944277;28;20031;-90
2021/09/30 04:32:14;;;;;;;0.95;0.50;;;;;;;0.91;91.02;91752.25;4991503;28;20022;-90
2021/09/30 04:34:40;;;;;;;0.50;0.40;;;;;;;0.98;89.82;91750.22;4998403;28;20029;-90
2021/09/30 04:37:05;;;;;;;5.78;0.60;;;;;;;1.02;89.84;91755.63;4981975;28;20038;-90
2021/09/30 04:39:31;;;;;;;2.63;0.50;;;;;;;0.99;90.01;91751.00;4995415;28;20037;-90
2021/09/30 04:41:57;;;;;;;4.05;0.60;;;;;;;0.89;89.59;91747.38;4993308;28;20024;-91
2021/09/30 04:44:22;;;;;;;4.03;0.40;;;;;;;0.98;89.61;91745.09;4999193;28;20026;-90
2021/09/30 04:46:48;;;;;;;2.50;0.50;;;;;;;1.01;89.59;91741.25;4999102;28;20030;-90
2021/09/30 04:49:13;;;;;;;1.77;0.50;;;;;;;0.95;89.55;91743.81;4996065;28;20483;-90
2021/09/30 04:51:39;;;;;;;4.07;0.68;;;;;;;0.89;89.91;91741.47;4980868;28;20084;-89
2021/09/30 04:54:04;;;;;;;2.20;0.50;;;;;;;0.94;88.87;91747.38;4980438;28;20029;-91
2021/09/30 04:56:29;;;;;;;2.33;0.63;;;;;;;0.83;89.51;91735.53;4962305;28;20034;-90
2021/09/30 04:58:55;;;;;;;1.00;0.50;;;;;;;0.88;89.72;91738.13;4974269;28;20034;-90
2021/09/30 05:01:21;;;;;;;1.00;0.52;;;;;;;0.90;90.56;91730.94;4983629;28;20026;-90
2021/09/30 05:03:46;;;;;;;1.13;0.60;;;;;;;0.95;89.77;91733.56;4973613;28;20110;-90
2021/09/30 05:06:12;;;;;;;2.20;0.70;;;;;;;1.00;89.73;91744.84;4988086;28;20030;-90
2021/09/30 05:08:39;;;;;;;6.35;0.73;;;;;;;0.99;90.95;91741.53;4996762;28;20029;-89
2021/09/30 05:11:05;;;;;;;10.38;0.80;;;;;;;1.00;90.87;91745.63;4971934;28;20022;-90
2021/09/30 05:13:37;;;;;;;4.15;0.95;;;;;;;0.97;90.73;91741.00;4977762;28;20491;-89
2021/09/30 05:16:03;;;;;;;5.38;0.70;;;;;;;0.98;90.56;91739.19;4994289;28;20026;-90
2021/09/30 05:18:29;;;;;;;2.05;0.40;;;;;;;1.08;90.38;91744.38;4977138;28;20026;-90
2021/09/30 05:20:54;;;;;;;2.85;0.60;;;;;;;1.04;89.80;91751.81;4977077;28;20719;-91
2021/09/30 05:23:20;;;;;;;3.47;0.60;;;;;;;1.29;89.05;91751.16;5009163;28;20030;-90
2021/09/30 05:25:45;;;;;;;1.02;0.50;;;;;;;1.20;89.45;91750.06;4990876;28;20035;-90
2021/09/30 05:28:10;;;;;;;0.95;0.70;;;;;;;1.21;89.99;91756.78;4989830;28;20023;-90
2021/09/30 05:30:36;;;;;;;2.60;0.70;;;;;;;1.12;91.01;91758.25;4986495;28;20037;-90
2021/09/30 05:33:01;;;;;;;3.20;0.80;;;;;;;1.11;90.88;91759.28;4960655;28;20018;-90
2021/09/30 05:35:27;;;;;;;3.00;0.70;;;;;;;1.11;90.63;91749.78;4960133;28;20038;-90
2021/09/30 05:37:53;;;;;;;1.70;0.70;;;;;;;1.23;89.78;91751.38;4960645;28;20030;-90
2021/09/30 05:40:20;;;;;;;4.70;1.17;;;;;;;1.19;90.16;91758.81;4960507;28;20109;-90
2021/09/30 05:42:45;;;;;;;10.30;1.25;;;;;;;1.19;90.88;91766.50;4960760;28;20022;-90
2021/09/30 05:45:12;;;;;;;2.47;0.88;;;;;;;1.30;91.18;91764.75;4976234;28;20022;-90
2021/09/30 05:47:38;;;;;;;1.75;1.00;;;;;;;1.29;91.18;91760.66;4978712;28;20022;-90
2021/09/30 05:50:04;;;;;;;11.05;1.30;;;;;;;1.24;91.30;91753.69;4995995;28;20044;-90
2021/09/30 05:52:30;;;;;;;8.75;1.10;;;;;;;1.38;91.31;91757.34;4984354;28;20515;-91
2021/09/30 05:54:55;;;;;;;5.93;0.98;;;;;;;1.42;91.09;91755.06;4975264;28;20380;-90
2021/09/30 05:57:20;;;;;;;3.67;1.23;;;;;;;1.41;91.38;91756.84;4968832;28;20551;-90
2021/09/30 05:59:46;;;;;;;5.68;1.10;;;;;;;1.44;91.34;91753.00;4973174;28;20107;-90
2021/09/30 06:10:28;;;;;;;14.20;0.93;;;;;;;1.51;91.68;91770.75;4979331;28;20048;-90
2021/09/30 06:12:58;;;;;;;24.63;1.20;;;;;;;1.51;91.28;91757.91;4977803;28;20084;-90
2021/09/30 06:15:30;;;;;;;17.83;0.90;;;;;;;1.55;91.14;91753.81;4976909;28;20511;-90
2021/09/30 06:17:57;;;;;;;7.82;0.80;;;;;;;1.65;91.11;91761.53;5008920;28;20042;-91
2021/09/30 06:20:22;;;;;;;1.20;0.63;;;;;;;1.66;91.00;91747.66;4960645;28;20480;-89
2021/09/30 06:22:48;;;;;;;6.22;0.85;;;;;;;1.74;90.73;91752.31;4976143;28;20030;-89
2021/09/30 06:25:36;;;;;;;6.72;0.77;;;;;;;1.79;90.23;91756.69;4978690;28;20032;-90
2021/09/30 06:28:02;;;;;;;3.92;0.65;;;;;;;1.90;90.39;91760.84;4976332;28;20460;-88
2021/09/30 06:30:29;;;;;;;1.35;0.70;;;;;;;1.98;90.21;91756.97;4976408;28;20029;-89
2021/09/30 06:32:56;;;;;;;1.05;0.60;;;;;;;2.03;90.25;91764.72;4970754;28;20030;-89
2021/09/30 06:35:22;;;;;;;1.98;0.60;;;;;;;2.05;90.11;91765.22;4989744;28;20032;-90
2021/09/30 06:37:49;;;;;;;1.05;0.40;;;;;;;2.15;89.11;91760.09;4971199;28;20018;-90
2021/09/30 06:40:14;;;;;;;1.05;0.52;;;;;;;2.19;88.62;91761.16;4977969;28;20515;-91
2021/09/30 06:42:40;;;;;;;2.10;0.40;;;;;;;2.20;88.47;91757.56;4969507;28;20030;-90
2021/09/30 06:45:06;;;;;;;0.93;0.50;;;;;;;2.24;88.49;91766.28;4976031;28;20038;-89
2021/09/30 06:47:36;;;;;;;2.38;0.70;;;;;;;2.36;89.14;91769.38;4959767;28;20022;-89
2021/09/30 06:50:06;;;;;;;0.63;0.40;;;;;;;2.44;88.81;91775.03;4995566;28;20037;-90
2021/09/30 06:52:31;;;;;;;0.73;0.40;;;;;;;2.41;88.77;91780.72;4961124;28;20022;-91
2021/09/30 06:54:57;;;;;;;0.90;0.60;;;;;;;2.52;88.85;91783.03;4976764;28;20034;-90
2021/09/30 06:57:27;;;;;;;0.60;0.40;;;;;;;2.60;89.06;91784.31;4976228;28;20034;-90
2021/09/30 06:59:52;;;;;;;1.65;0.50;;;;;;;2.59;89.08;91785.34;4966000;28;20034;-90
2021/09/30 07:02:22;;;;;;;1.83;0.63;;;;;;;2.66;88.83;91785.88;4976210;28;20037;-90
2021/09/30 07:04:47;;;;;;;1.52;0.90;;;;;;;2.90;88.65;91780.97;4977555;28;20027;-91
2021/09/30 07:07:13;;;;;;;2.97;1.05;;;;;;;2.90;88.82;91780.16;4980104;28;20026;-90
2021/09/30 07:09:38;;;;;;;2.70;0.90;;;;;;;2.83;88.95;91781.22;4966500;28;20034;-89
2021/09/30 07:12:04;;;;;;;4.10;0.88;;;;;;;2.99;88.97;91787.09;4981832;28;20062;-89
2021/09/30 07:14:29;;;;;;;1.20;0.75;;;;;;;3.02;89.20;91783.25;5000825;28;20088;-92
2021/09/30 07:16:55;;;;;;;2.97;0.82;;;;;;;3.10;88.86;91783.47;5000835;28;20033;-89
2021/09/30 07:19:20;;;;;;;1.55;0.50;;;;;;;3.18;89.07;91786.56;5000183;28;20018;-88
2021/09/30 07:21:46;;;;;;;2.33;0.68;;;;;;;3.22;88.77;91772.91;4998592;28;20048;-89
2021/09/30 07:24:11;;;;;;;1.10;0.60;;;;;;;3.33;88.62;91779.56;4979795;28;20081;-89
2021/09/30 07:26:36;;;;;;;1.35;0.75;;;;;;;3.43;88.32;91783.13;5000167;28;20021;-89
2021/09/30 07:29:02;;;;;;;1.75;0.90;;;;;;;3.61;87.99;91785.16;4982361;28;20018;-88
2021/09/30 07:31:44;;;;;;;1.15;0.60;;;;;;;3.53;88.54;91785.69;4998877;28;20546;-87
2021/09/30 07:34:11;;;;;;;3.40;0.70;;;;;;;3.57;88.30;91779.00;4997971;28;20033;-89
2021/09/30 07:36:41;;;;;;;4.30;0.60;;;;;;;3.67;88.26;91789.25;4994979;28;20029;-88
2021/09/30 07:39:06;;;;;;;1.05;0.40;;;;;;;3.95;88.90;91787.06;4978985;28;20492;-88
2021/09/30 07:41:32;;;;;;;1.83;0.47;;;;;;;4.02;87.00;91777.22;4997311;28;20021;-88
2021/09/30 07:43:57;;;;;;;1.33;0.38;;;;;;;4.09;87.16;91772.53;4997975;28;20025;-87
2021/09/30 07:46:23;;;;;;;1.85;0.50;;;;;;;4.24;87.69;91785.38;4997891;28;20026;-88
2021/09/30 07:48:51;;;;;;;2.10;0.50;;;;;;;4.45;88.65;91787.78;4998445;28;20030;-88
2021/09/30 07:51:17;;;;;;;1.75;0.63;;;;;;;4.49;86.28;91781.06;4982360;28;20029;-88
2021/09/30 07:53:42;;;;;;;3.08;0.40;;;;;;;4.69;85.16;91788.66;4979617;28;20034;-89
2021/09/30 07:56:07;;;;;;;2.10;0.50;;;;;;;4.83;84.38;91790.63;4974494;28;20023;-89
2021/09/30 07:58:44;;;;;;;2.38;0.52;;;;;;;4.92;83.75;91789.75;5026894;28;20399;-88
2021/09/30 08:01:09;;;;;;;3.50;0.45;;;;;;;5.00;84.18;91794.34;4997719;28;20108;-89
2021/09/30 08:03:35;;;;;;;2.65;0.50;;;;;;;5.10;84.86;91790.91;4997332;28;20093;-89
2021/09/30 08:06:01;;;;;;;2.40;0.40;;;;;;;5.17;84.64;91788.75;4997585;28;20022;-89
2021/09/30 08:08:26;;;;;;;3.40;0.60;;;;;;;5.32;82.93;91785.25;4982737;28;20049;-89
2021/09/30 08:10:52;;;;;;;2.33;0.50;;;;;;;5.42;80.00;91777.41;4994277;28;20041;-90
2021/09/30 08:13:22;;;;;;;2.45;0.30;;;;;;;5.57;78.73;91779.03;4991459;28;20162;-89
2021/09/30 08:15:48;;;;;;;3.30;0.50;;;;;;;5.69;79.28;91774.25;4997018;28;20096;-90
2021/09/30 08:18:13;;;;;;;1.58;0.60;;;;;;;5.83;77.60;91776.16;4980486;28;20031;-89
2021/09/30 08:20:42;;;;;;;2.40;0.30;;;;;;;5.97;80.69;91782.22;4991225;28;20030;-89
2021/09/30 08:23:11;;;;;;;3.20;0.35;;;;;;;6.10;78.84;91773.00;4977737;28;20026;-88
2021/09/30 08:25:36;;;;;;;2.58;0.50;;;;;;;6.22;78.03;91774.13;4995596;28;20483;-89
2021/09/30 08:28:02;;;;;;;2.13;0.32;;;;;;;6.34;78.85;91772.94;4980938;28;20084;-89
2021/09/30 08:30:27;;;;;;;2.45;0.47;;;;;;;6.42;73.39;91777.47;5013486;28;20034;-88
2021/09/30 08:32:58;;;;;;;2.03;0.40;;;;;;;6.51;76.19;91777.63;4997622;28;20075;-90
2021/09/30 08:35:23;;;;;;;3.80;1.20;;;;;;;6.64;77.94;91775.09;4996767;28;20030;-89
2021/09/30 08:37:49;;;;;;;3.45;1.23;;;;;;;6.81;75.83;91771.97;4996591;28;20041;-88
2021/09/30 08:40:14;;;;;;;1.52;0.50;;;;;;;6.89;75.58;91760.19;4996777;28;20072;-89
2021/09/30 08:42:43;;;;;;;4.13;0.65;;;;;;;6.99;73.05;91765.19;4984894;28;20089;-90
2021/09/30 08:45:11;;;;;;;3.10;0.90;;;;;;;7.15;67.38;91768.31;4993457;28;20032;-89
2021/09/30 08:47:36;;;;;;;1.90;0.30;;;;;;;7.07;68.10;91764.56;4977399;28;20081;-89
2021/09/30 08:50:03;;;;;;;1.88;0.30;;;;;;;7.25;71.68;91762.19;4993560;28;20023;-90
2021/09/30 08:52:28;;;;;;;0.80;0.35;;;;;;;7.34;71.46;91760.47;4982774;28;20037;-88
2021/09/30 08:55:08;;;;;;;2.22;0.20;;;;;;;7.34;64.14;91765.63;4977447;28;20360;-90
2021/09/30 08:57:33;;;;;;;1.42;0.20;;;;;;;7.45;63.87;91756.63;4977138;28;20106;-90
2021/09/30 09:00:08;;;;;;;4.93;0.28;;;;;;;7.69;67.28;91753.06;4961009;28;20061;-89
2021/09/30 09:02:47;;;;;;;3.17;0.40;;;;;;;7.79;68.51;91745.84;4961063;28;20416;-90
2021/09/30 09:05:14;;;;;;;1.27;0.30;;;;;;;7.88;63.69;91758.94;4977423;28;20600;-89
2021/09/30 09:07:40;;;;;;;1.30;0.20;;;;;;;8.04;59.69;91757.53;4965595;28;20033;-89
2021/09/30 09:10:09;;;;;;;2.15;0.40;;;;;;;7.98;61.71;91748.31;4996618;28;20029;-89
2021/09/30 09:12:35;;;;;;;1.35;0.30;;;;;;;8.02;63.68;91744.09;4993352;28;20022;-91
2021/09/30 09:15:00;;;;;;;1.95;0.40;;;;;;;8.25;57.99;91749.34;5036003;23;20117;-88
2021/09/30 09:17:26;;;;;;;2.65;0.30;;;;;;;8.28;56.97;91748.75;4974123;28;20035;-88
2021/09/30 09:19:56;;;;;;;3.30;0.20;;;;;;;8.40;56.99;91743.84;4974816;28;20125;-88
2021/09/30 09:22:22;;;;;;;1.17;0.20;;;;;;;8.67;62.54;91745.56;4974526;28;20038;-88
2021/09/30 09:25:19;;;;;;;1.77;0.30;;;;;;;8.57;59.31;91743.19;4990456;28;20038;-88
2021/09/30 09:27:55;;;;;;;1.30;0.20;;;;;;;8.77;59.62;91732.34;4990155;28;20026;-88
2021/09/30 09:30:56;;;;;;;2.15;0.30;;;;;;;8.83;58.74;91738.97;4990385;28;20030;-88
2021/09/30 09:33:27;;;;;;;1.23;0.25;;;;;;;8.80;59.23;91736.19;4956647;28;20022;-87
2021/09/30 09:36:06;;;;;;;4.18;0.30;;;;;;;8.93;60.06;91739.75;4943041;28;20039;-88
2021/09/30 09:38:44;;;;;;;1.77;0.30;;;;;;;9.04;59.94;91741.03;4989859;28;20101;-88
2021/09/30 09:41:14;;;;;;;0.70;0.10;;;;;;;9.22;58.10;91736.69;4991143;28;20385;-88
2021/09/30 09:43:41;;;;;;;1.60;0.20;;;;;;;9.00;54.69;91734.91;4969505;28;20031;-90
2021/09/30 09:46:08;;;;;;;1.13;0.17;;;;;;;9.16;58.79;91733.47;4935817;29;20469;-86
2021/09/30 09:48:35;;;;;;;1.35;0.10;;;;;;;9.41;55.39;91736.50;4954725;28;20366;-87
2021/09/30 09:51:03;;;;;;;1.02;0.10;;;;;;;9.40;52.51;91733.13;4955137;28;20070;-87
2021/09/30 09:53:29;;;;;;;2.08;0.22;;;;;;;9.39;54.92;91720.41;4953759;28;20019;-84
2021/09/30 09:56:18;;;;;;;1.67;0.22;;;;;;;9.50;52.44;91716.47;4954720;28;20042;-86
2021/09/30 09:59:02;;;;;;;1.48;0.20;;;;;;;9.81;57.25;91716.41;4961079;28;20045;-86
2021/09/30 10:01:38;;;;;;;0.93;0.15;;;;;;;9.90;58.46;91713.81;4970863;28;20117;-86
2021/09/30 10:04:03;;;;;;;0.47;0.13;;;;;;;9.80;52.62;91704.47;4961345;28;20115;-87
2021/09/30 10:06:30;;;;;;;0.65;0.20;;;;;;;9.81;53.28;91700.78;4989191;28;20455;-85
2021/09/30 10:08:56;;;;;;;1.38;0.20;;;;;;;9.60;54.40;91702.41;4972389;28;20154;-85
2021/09/30 10:11:22;;;;;;;1.08;0.40;;;;;;;9.88;59.31;91701.09;4989692;28;20052;-86
2021/09/30 10:13:47;;;;;;;0.90;0.47;;;;;;;9.98;57.97;91700.81;4988542;28;20453;-86
2021/09/30 10:16:18;;;;;;;1.88;0.30;;;;;;;10.13;55.67;91706.66;4967855;28;20106;-87
2021/09/30 10:18:44;;;;;;;1.52;0.28;;;;;;;10.45;56.81;91708.81;4953497;28;20114;-88
2021/09/30 10:21:09;;;;;;;1.05;0.20;;;;;;;10.51;56.11;91699.03;4975966;28;20046;-88
2021/09/30 10:23:38;;;;;;;1.30;0.30;;;;;;;10.52;56.59;91703.91;4980794;28;20027;-87
2021/09/30 10:26:20;;;;;;;0.57;0.20;;;;;;;10.60;52.94;91699.00;4972479;28;20113;-88
2021/09/30 10:28:46;;;;;;;1.35;0.20;;;;;;;10.57;56.59;91694.44;4954346;28;20115;-89
2021/09/30 10:31:32;;;;;;;1.35;0.20;;;;;;;10.70;55.92;91699.44;4969934;28;20032;-88
2021/09/30 10:34:00;;;;;;;0.50;0.20;;;;;;;10.70;51.32;91698.69;4953394;28;20044;-88
2021/09/30 10:36:34;;;;;;;0.77;0.30;;;;;;;10.42;51.35;91703.47;4953532;29;20557;-89
2021/09/30 10:39:25;;;;;;;1.08;0.20;;;;;;;10.56;53.48;91696.25;4954867;28;20034;-87
2021/09/30 10:41:55;;;;;;;0.90;0.22;;;;;;;10.67;53.94;91691.47;4974977;28;20031;-87
2021/09/30 10:44:34;;;;;;;1.95;0.30;;;;;;;10.74;53.28;91700.38;4972531;28;20396;-87
2021/09/30 10:47:01;;;;;;;1.88;0.20;;;;;;;10.79;53.10;91690.88;4954359;28;20038;-88
2021/09/30 10:49:55;;;;;;;1.95;0.30;;;;;;;10.81;52.72;91684.25;4953560;29;20030;-87
2021/09/30 10:52:31;;;;;;;1.42;0.30;;;;;;;10.98;49.59;91675.63;4985359;28;20445;-88
2021/09/30 10:55:00;;;;;;;2.47;0.43;;;;;;;11.09;50.68;91678.66;4972608;28;20065;-87
2021/09/30 10:57:37;;;;;;;1.33;0.30;;;;;;;11.13;51.26;91682.19;4953707;28;20042;-87
2021/09/30 11:00:29;;;;;;;0.85;0.28;;;;;;;11.43;52.67;91667.34;4969412;28;20041;-87
2021/09/30 11:03:00;;;;;;;1.27;0.25;;;;;;;10.99;48.11;91677.94;4962696;28;20449;-87
2021/09/30 11:05:33;;;;;;;1.23;0.20;;;;;;;11.06;50.80;91668.84;4969495;28;20035;-88
2021/09/30 11:08:25;;;;;;;1.52;0.20;;;;;;;11.10;49.67;91664.56;4955827;29;20042;-88
2021/09/30 11:11:03;;;;;;;3.22;0.60;;;;;;;11.22;50.21;91662.06;4990977;28;20045;-90
2021/09/30 11:13:30;;;;;;;1.10;0.20;;;;;;;11.38;51.95;91652.63;4985637;28;20030;-89
2021/09/30 11:16:02;;;;;;;1.95;0.30;;;;;;;11.49;48.80;91656.41;4953012;28;20461;-88
2021/09/30 11:18:40;;;;;;;0.82;0.25;;;;;;;11.27;45.25;91658.50;4968686;28;20501;-88
2021/09/30 11:21:37;;;;;;;2.35;0.30;;;;;;;11.44;47.92;91653.97;4973316;28;20023;-89
2021/09/30 11:24:06;;;;;;;1.40;0.20;;;;;;;11.49;45.03;91645.97;4988119;28;20409;-89
2021/09/30 11:26:52;;;;;;;0.55;0.20;;;;;;;11.44;45.35;91653.97;4985643;28;20026;-88
2021/09/30 11:29:26;;;;;;;0.30;0.10;;;;;;;11.66;51.73;91652.94;4965170;28;20035;-89
2021/09/30 11:31:58;;;;;;;;;;;;;;;11.57;44.94;91651.47;4978830;28;20373;-89
2021/09/30 11:34:30;;;;;;;1.88;0.30;;;;;;;11.54;44.81;91646.88;4988225;28;19910;-89
2021/09/30 11:36:57;;;;;;;0.68;0.30;;;;;;;11.61;47.32;91647.13;4985709;28;20027;-88
2021/09/30 11:39:33;;;;;;;1.67;0.28;;;;;;;11.47;44.21;91636.91;4968740;28;20114;-89
2021/09/30 11:41:58;;;;;;;0.77;0.20;;;;;;;11.59;48.58;91631.00;4968026;28;20618;-87
2021/09/30 11:44:24;;;;;;;2.55;0.20;;;;;;;11.58;43.82;91629.50;4953173;28;20030;-88
2021/09/30 11:46:53;;;;;;;1.08;0.30;;;;;;;11.53;43.78;91624.47;4968755;28;20039;-89
2021/09/30 11:49:19;;;;;;;1.30;0.40;;;;;;;11.66;46.23;91631.28;4969165;28;20139;-88
2021/09/30 11:51:54;;;;;;;1.15;0.30;;;;;;;11.66;47.21;91631.28;4972753;28;20026;-89
2021/09/30 11:54:22;;;;;;;0.98;0.20;;;;;;;11.82;45.47;91627.03;4980725;28;20088;-92
2021/09/30 11:56:49;;;;;;;0.77;0.30;;;;;;;12.00;48.20;91616.50;4993530;28;20043;-89
2021/09/30 11:59:16;;;;;;;1.45;0.32;;;;;;;12.06;45.81;91613.38;4982216;28;20030;-89
2021/09/30 12:02:06;;;;;;;0.98;0.22;;;;;;;12.02;45.34;91611.72;4957250;28;20039;-88
2021/09/30 12:04:39;;;;;;;1.73;0.32;;;;;;;12.01;43.00;91613.56;4985043;28;20027;-92
2021/09/30 12:07:04;;;;;;;2.40;0.77;;;;;;;12.04;45.71;91614.78;4964915;28;20027;-88
2021/09/30 12:09:36;;;;;;;2.05;0.77;;;;;;;12.11;45.89;91610.56;4956491;28;20031;-87
2021/09/30 12:12:03;;;;;;;2.97;0.75;;;;;;;12.15;47.37;91597.63;4972181;28;20031;-88
2021/09/30 12:14:45;;;;;;;1.35;0.25;;;;;;;12.31;45.61;91601.19;4959040;28;20054;-87
2021/09/30 12:17:13;;;;;;;2.33;0.40;;;;;;;12.23;44.90;91604.63;4975371;28;20518;-87
2021/09/30 12:19:45;;;;;;;1.00;0.30;;;;;;;12.02;44.13;91603.91;4974993;28;20097;-88
2021/09/30 12:22:50;;;;;;;1.17;0.40;;;;;;;12.01;45.07;91597.13;4991206;28;20085;-88
2021/09/30 12:25:33;;;;;;;0.60;0.30;;;;;;;11.95;44.74;91599.94;4964880;28;20416;-88
2021/09/30 12:27:59;;;;;;;1.50;0.40;;;;;;;12.03;46.34;91602.81;4975489;28;20035;-88
2021/09/30 12:30:28;;;;;;;1.42;0.28;;;;;;;12.08;44.29;91607.81;4992087;28;20033;-86
2021/09/30 12:33:03;;;;;;;2.17;0.60;;;;;;;12.03;48.24;91594.97;4975960;28;20019;-88
2021/09/30 12:35:31;;;;;;;1.67;0.50;;;;;;;11.95;51.92;91599.19;4984633;28;20023;-88
2021/09/30 12:37:58;;;;;;;3.03;0.35;;;;;;;11.89;53.41;91609.03;4956598;29;20023;-88
2021/09/30 12:40:26;;;;;;;1.60;0.40;;;;;;;11.73;51.97;91608.81;4990257;28;20061;-88
2021/09/30 12:43:16;;;;;;;1.30;0.43;;;;;;;11.70;51.36;91599.00;4961108;28;20030;-88
2021/09/30 12:45:54;;;;;;;1.33;0.30;;;;;;;11.89;51.32;91609.03;4952532;28;20046;-88
2021/09/30 12:48:24;;;;;;;3.42;0.50;;;;;;;11.92;52.95;91605.78;4976730;28;20085;-89
2021/09/30 12:50:51;;;;;;;1.60;0.50;;;;;;;12.04;53.11;91592.03;4990164;28;20038;-88
2021/09/30 12:53:18;;;;;;;4.00;0.40;;;;;;;11.80;52.67;91595.28;4990595;28;20022;-88
2021/09/30 12:55:44;;;;;;;3.58;0.50;;;;;;;11.97;52.99;91594.38;4990396;28;20101;-88
2021/09/30 12:58:32;;;;;;;3.70;0.70;;;;;;;11.93;52.59;91591.66;4990696;28;20109;-88
2021/09/30 13:00:59;;;;;;;2.30;0.43;;;;;;;12.26;53.42;91582.31;4970934;28;20035;-87
2021/09/30 13:03:25;;;;;;;3.55;0.45;;;;;;;12.09;51.74;91584.00;4953164;28;20039;-87
2021/09/30 13:05:52;;;;;;;2.75;0.32;;;;;;;12.47;48.46;91587.50;4989926;28;20023;-88
2021/09/30 13:08:39;;;;;;;1.50;0.40;;;;;;;12.98;51.26;91580.19;4974142;28;20086;-88
2021/09/30 13:11:23;;;;;;;2.85;0.40;;;;;;;12.54;50.09;91587.75;4954743;28;20082;-89
2021/09/30 13:14:29;;;;;;;1.70;0.40;;;;;;;11.85;51.22;91595.09;4970777;28;20102;-88
2021/09/30 13:17:14;;;;;;;2.92;0.40;;;;;;;11.95;54.57;91586.88;4970948;28;20031;-87
2021/09/30 13:19:40;;;;;;;;;;;;;;;12.09;53.48;91588.47;4971100;28;20023;-88
2021/09/30 13:22:06;;;;;;;2.83;0.40;;;;;;;11.84;54.40;91577.91;4938940;29;20368;-87
2021/09/30 13:24:35;;;;;;;3.33;0.60;;;;;;;11.98;53.60;91587.31;4954237;28;20040;-88
2021/09/30 13:27:44;;;;;;;3.17;0.60;;;;;;;12.09;53.13;91583.25;4970627;28;20118;-88
2021/09/30 13:30:15;;;;;;;1.52;0.50;;;;;;;12.46;52.40;91576.28;4977313;28;20026;-87
2021/09/30 13:32:41;;;;;;;1.38;0.57;;;;;;;12.36;53.30;91574.06;4970135;28;20019;-88
2021/09/30 13:35:06;;;;;;;3.58;0.50;;;;;;;12.07;54.30;91575.72;4979457;28;20026;-88
2021/09/30 13:37:32;;;;;;;4.55;0.60;;;;;;;11.94;53.66;91563.69;4989764;28;20023;-87
2021/09/30 13:39:59;;;;;;;1.77;0.55;;;;;;;12.24;52.68;91563.59;4989638;28;20027;-89
2021/09/30 13:42:28;;;;;;;1.25;0.45;;;;;;;12.24;53.66;91553.13;4985714;28;20441;-88
2021/09/30 13:44:54;;;;;;;2.50;0.70;;;;;;;12.80;52.35;91551.63;4969805;28;20023;-88
2021/09/30 13:47:20;;;;;;;1.30;0.40;;;;;;;13.07;49.52;91554.69;4954326;28;20031;-87
2021/09/30 13:49:45;;;;;;;1.15;0.40;;;;;;;13.21;48.66;91546.50;4975101;28;20026;-88
2021/09/30 13:52:11;;;;;;;4.80;0.60;;;;;;;13.08;50.46;91546.53;4973092;28;20398;-88
2021/09/30 13:54:37;;;;;;;2.42;0.73;;;;;;;12.94;51.58;91533.00;4985824;28;20027;-90
2021/09/30 13:57:04;;;;;;;1.20;0.40;;;;;;;12.92;51.67;91535.94;4953969;28;20130;-88
2021/09/30 13:59:29;;;;;;;1.70;0.52;;;;;;;13.04;50.56;91531.78;4954284;28;20029;-89
2021/09/30 14:01:54;;;;;;;2.10;0.47;;;;;;;13.20;51.65;91529.28;4975123;28;20031;-87
2021/09/30 14:04:20;;;;;;;1.42;0.40;;;;;;;13.39;51.04;91538.13;4953836;28;20019;-89
2021/09/30 14:07:23;;;;;;;3.38;0.60;;;;;;;13.70;51.88;91536.75;4976420;28;20038;-90
2021/09/30 14:09:49;;;;;;;1.17;0.40;;;;;;;14.07;48.93;91537.41;4989657;28;20023;-89
2021/09/30 14:12:14;;;;;;;2.50;0.50;;;;;;;13.65;50.21;91529.13;4962965;28;20121;-88
2021/09/30 14:14:40;;;;;;;2.85;0.55;;;;;;;13.86;50.72;91531.59;4955109;28;20023;-89
2021/09/30 14:17:05;;;;;;;1.55;0.40;;;;;;;14.06;51.01;91527.25;4961325;28;20072;-88
2021/09/30 14:19:30;;;;;;;2.03;0.40;;;;;;;13.87;49.48;91526.00;4973481;28;20077;-89
2021/09/30 14:21:56;;;;;;;1.98;0.43;;;;;;;14.26;49.42;91525.53;4956977;28;20026;-89
2021/09/30 14:24:22;;;;;;;2.45;1.13;;;;;;;14.28;48.75;91529.34;4972605;28;20551;-89
2021/09/30 14:26:47;;;;;;;2.05;0.35;;;;;;;14.35;49.65;91529.53;4956923;28;20485;-88
2021/09/30 14:29:13;;;;;;;0.98;0.50;;;;;;;14.75;48.58;91517.44;4959314;28;20624;-91
2021/09/30 14:31:38;;;;;;;2.05;0.65;;;;;;;14.44;48.35;91515.50;4996884;28;20010;-92
2021/09/30 14:34:04;;;;;;;2.15;0.80;;;;;;;14.25;48.85;91522.16;4992617;28;20042;-88
2021/09/30 14:36:29;;;;;;;3.28;0.80;;;;;;;14.40;50.16;91527.75;4973054;28;20031;-87
2021/09/30 14:38:56;;;;;;;3.13;0.90;;;;;;;14.50;48.92;91514.19;4974380;28;20026;-89
2021/09/30 14:41:22;;;;;;;2.05;0.60;;;;;;;14.59;48.44;91514.78;4977211;28;20137;-88